sensor_id;sensor_type;location;lat;lon;timestamp;P1;durP1;ratioP1;P2;durP2;ratioP2
32427;SDS011;18882;50.952;4.366;2022-08-20T00:00:24;12.57;;;7.22;;
32427;SDS011;18882;50.952;4.366;2022-08-20T00:02:54;11.73;;;6.50;;
32427;SDS011;18882;50.952;4.366;2022-08-20T00:05:34;11.40;;;6.68;;
32427;SDS011;18882;50.952;4.366;2022-08-20T00:08:07;14.20;;;6.15;;
32427;SDS011;18882;50.952;4.366;2022-08-20T00:10:34;11.77;;;7.05;;
32427;SDS011;18882;50.952;4.366;2022-08-20T00:13:02;10.85;;;6.93;;
32427;SDS011;18882;50.952;4.366;2022-08-20T00:15:31;15.15;;;7.30;;
32427;SDS011;18882;50.952;4.366;2022-08-20T00:17:59;12.20;;;6.18;;
32427;SDS011;18882;50.952;4.366;2022-08-20T00:20:26;13.60;;;7.55;;
32427;SDS011;18882;50.952;4.366;2022-08-20T00:22:57;11.30;;;6.82;;
32427;SDS011;18882;50.952;4.366;2022-08-20T00:25:23;12.95;;;6.35;;
32427;SDS011;18882;50.952;4.366;2022-08-20T00:27:52;12.10;;;6.63;;
32427;SDS011;18882;50.952;4.366;2022-08-20T00:30:18;13.80;;;6.55;;
32427;SDS011;18882;50.952;4.366;2022-08-20T00:32:51;12.20;;;5.85;;
32427;SDS011;18882;50.952;4.366;2022-08-20T00:35:22;11.32;;;5.72;;
32427;SDS011;18882;50.952;4.366;2022-08-20T00:37:49;10.02;;;5.70;;
32427;SDS011;18882;50.952;4.366;2022-08-20T00:40:16;12.65;;;6.10;;
32427;SDS011;18882;50.952;4.366;2022-08-20T00:42:46;11.27;;;5.60;;
32427;SDS011;18882;50.952;4.366;2022-08-20T00:45:16;15.75;;;5.63;;
32427;SDS011;18882;50.952;4.366;2022-08-20T00:47:42;15.73;;;5.75;;
32427;SDS011;18882;50.952;4.366;2022-08-20T00:50:10;11.10;;;4.78;;
32427;SDS011;18882;50.952;4.366;2022-08-20T00:52:37;8.98;;;4.45;;
32427;SDS011;18882;50.952;4.366;2022-08-20T00:55:06;12.23;;;4.43;;
32427;SDS011;18882;50.952;4.366;2022-08-20T00:57:37;9.85;;;4.55;;
32427;SDS011;18882;50.952;4.366;2022-08-20T01:02:38;12.32;;;4.88;;
32427;SDS011;18882;50.952;4.366;2022-08-20T01:05:06;7.80;;;3.47;;
32427;SDS011;18882;50.952;4.366;2022-08-20T01:07:34;9.95;;;3.88;;
32427;SDS011;18882;50.952;4.366;2022-08-20T01:10:06;11.45;;;3.75;;
32427;SDS011;18882;50.952;4.366;2022-08-20T01:12:37;10.98;;;3.90;;
32427;SDS011;18882;50.952;4.366;2022-08-20T01:15:05;7.57;;;3.40;;
32427;SDS011;18882;50.952;4.366;2022-08-20T01:17:34;10.18;;;3.83;;
32427;SDS011;18882;50.952;4.366;2022-08-20T01:25:52;16.88;;;3.45;;
32427;SDS011;18882;50.952;4.366;2022-08-20T01:31:14;13.45;;;3.47;;
32427;SDS011;18882;50.952;4.366;2022-08-20T01:33:42;11.35;;;3.33;;
32427;SDS011;18882;50.952;4.366;2022-08-20T01:36:08;5.18;;;2.83;;
32427;SDS011;18882;50.952;4.366;2022-08-20T01:38:35;19.05;;;3.90;;
32427;SDS011;18882;50.952;4.366;2022-08-20T01:41:24;15.93;;;3.38;;
32427;SDS011;18882;50.952;4.366;2022-08-20T01:43:53;10.23;;;3.35;;
32427;SDS011;18882;50.952;4.366;2022-08-20T01:46:23;9.52;;;3.75;;
32427;SDS011;18882;50.952;4.366;2022-08-20T01:48:53;12.63;;;3.95;;
32427;SDS011;18882;50.952;4.366;2022-08-20T01:51:22;6.20;;;3.85;;
32427;SDS011;18882;50.952;4.366;2022-08-20T01:53:53;7.57;;;4.40;;
32427;SDS011;18882;50.952;4.366;2022-08-20T01:56:21;7.97;;;3.63;;
32427;SDS011;18882;50.952;4.366;2022-08-20T01:58:50;15.95;;;4.45;;
32427;SDS011;18882;50.952;4.366;2022-08-20T02:03:59;14.00;;;4.90;;
32427;SDS011;18882;50.952;4.366;2022-08-20T02:06:30;8.82;;;4.18;;
32427;SDS011;18882;50.952;4.366;2022-08-20T02:08:58;14.93;;;4.50;;
32427;SDS011;18882;50.952;4.366;2022-08-20T02:11:27;13.48;;;4.30;;
32427;SDS011;18882;50.952;4.366;2022-08-20T02:13:54;13.65;;;5.20;;
32427;SDS011;18882;50.952;4.366;2022-08-20T02:16:23;14.25;;;4.90;;
32427;SDS011;18882;50.952;4.366;2022-08-20T02:19:04;16.73;;;4.70;;
32427;SDS011;18882;50.952;4.366;2022-08-20T02:21:37;13.10;;;5.18;;
32427;SDS011;18882;50.952;4.366;2022-08-20T02:24:07;13.15;;;4.35;;
32427;SDS011;18882;50.952;4.366;2022-08-20T02:26:33;9.20;;;4.65;;
32427;SDS011;18882;50.952;4.366;2022-08-20T02:29:02;13.52;;;4.85;;
32427;SDS011;18882;50.952;4.366;2022-08-20T02:31:33;15.02;;;4.95;;
32427;SDS011;18882;50.952;4.366;2022-08-20T02:34:00;17.13;;;4.95;;
32427;SDS011;18882;50.952;4.366;2022-08-20T02:36:26;13.75;;;4.43;;
32427;SDS011;18882;50.952;4.366;2022-08-20T02:38:52;16.88;;;5.07;;
32427;SDS011;18882;50.952;4.366;2022-08-20T02:41:18;21.75;;;5.55;;
32427;SDS011;18882;50.952;4.366;2022-08-20T02:43:45;21.45;;;4.97;;
32427;SDS011;18882;50.952;4.366;2022-08-20T02:46:12;14.48;;;4.95;;
32427;SDS011;18882;50.952;4.366;2022-08-20T02:48:39;18.10;;;5.45;;
32427;SDS011;18882;50.952;4.366;2022-08-20T02:51:07;10.50;;;5.43;;
32427;SDS011;18882;50.952;4.366;2022-08-20T02:53:35;13.57;;;4.85;;
32427;SDS011;18882;50.952;4.366;2022-08-20T02:56:05;15.52;;;5.35;;
32427;SDS011;18882;50.952;4.366;2022-08-20T02:58:33;22.58;;;4.82;;
32427;SDS011;18882;50.952;4.366;2022-08-20T03:00:59;7.90;;;4.93;;
32427;SDS011;18882;50.952;4.366;2022-08-20T03:03:26;12.63;;;4.68;;
32427;SDS011;18882;50.952;4.366;2022-08-20T03:05:53;13.95;;;5.13;;
32427;SDS011;18882;50.952;4.366;2022-08-20T03:08:21;18.80;;;5.32;;
32427;SDS011;18882;50.952;4.366;2022-08-20T03:10:48;18.30;;;5.53;;
32427;SDS011;18882;50.952;4.366;2022-08-20T03:13:15;16.55;;;5.40;;
32427;SDS011;18882;50.952;4.366;2022-08-20T03:15:44;14.18;;;5.07;;
32427;SDS011;18882;50.952;4.366;2022-08-20T03:18:11;23.25;;;5.78;;
32427;SDS011;18882;50.952;4.366;2022-08-20T03:20:39;8.85;;;4.63;;
32427;SDS011;18882;50.952;4.366;2022-08-20T03:23:05;17.38;;;5.65;;
32427;SDS011;18882;50.952;4.366;2022-08-20T03:25:31;12.48;;;4.90;;
32427;SDS011;18882;50.952;4.366;2022-08-20T03:27:57;12.68;;;4.63;;
32427;SDS011;18882;50.952;4.366;2022-08-20T03:30:24;12.73;;;4.70;;
32427;SDS011;18882;50.952;4.366;2022-08-20T03:32:51;11.05;;;5.10;;
32427;SDS011;18882;50.952;4.366;2022-08-20T03:35:18;15.95;;;5.13;;
32427;SDS011;18882;50.952;4.366;2022-08-20T03:37:45;18.65;;;5.20;;
32427;SDS011;18882;50.952;4.366;2022-08-20T03:40:13;18.13;;;4.75;;
32427;SDS011;18882;50.952;4.366;2022-08-20T03:42:58;13.07;;;5.30;;
32427;SDS011;18882;50.952;4.366;2022-08-20T03:45:25;11.88;;;4.65;;
32427;SDS011;18882;50.952;4.366;2022-08-20T03:47:52;12.02;;;4.95;;
32427;SDS011;18882;50.952;4.366;2022-08-20T03:50:20;14.38;;;5.10;;
32427;SDS011;18882;50.952;4.366;2022-08-20T03:52:47;20.33;;;5.45;;
32427;SDS011;18882;50.952;4.366;2022-08-20T03:55:15;19.20;;;5.38;;
32427;SDS011;18882;50.952;4.366;2022-08-20T03:57:45;15.63;;;5.28;;
32427;SDS011;18882;50.952;4.366;2022-08-20T04:00:18;17.73;;;5.97;;
32427;SDS011;18882;50.952;4.366;2022-08-20T04:02:47;24.98;;;5.95;;
32427;SDS011;18882;50.952;4.366;2022-08-20T04:05:13;12.75;;;5.28;;
32427;SDS011;18882;50.952;4.366;2022-08-20T04:07:39;13.93;;;5.63;;
32427;SDS011;18882;50.952;4.366;2022-08-20T04:10:06;14.00;;;5.57;;
32427;SDS011;18882;50.952;4.366;2022-08-20T04:12:34;15.35;;;5.90;;
32427;SDS011;18882;50.952;4.366;2022-08-20T04:15:05;18.92;;;6.10;;
32427;SDS011;18882;50.952;4.366;2022-08-20T04:17:37;18.63;;;5.97;;
32427;SDS011;18882;50.952;4.366;2022-08-20T04:20:06;19.48;;;5.97;;
32427;SDS011;18882;50.952;4.366;2022-08-20T04:22:33;15.50;;;5.63;;
32427;SDS011;18882;50.952;4.366;2022-08-20T04:24:59;16.25;;;6.63;;
32427;SDS011;18882;50.952;4.366;2022-08-20T04:27:25;25.98;;;5.82;;
32427;SDS011;18882;50.952;4.366;2022-08-20T04:29:51;20.45;;;7.03;;
32427;SDS011;18882;50.952;4.366;2022-08-20T04:32:16;20.42;;;5.85;;
32427;SDS011;18882;50.952;4.366;2022-08-20T04:34:42;23.40;;;5.60;;
32427;SDS011;18882;50.952;4.366;2022-08-20T04:37:08;17.85;;;5.95;;
32427;SDS011;18882;50.952;4.366;2022-08-20T04:39:35;23.60;;;6.15;;
32427;SDS011;18882;50.952;4.366;2022-08-20T04:42:02;22.48;;;6.38;;
32427;SDS011;18882;50.952;4.366;2022-08-20T04:44:28;16.08;;;7.07;;
32427;SDS011;18882;50.952;4.366;2022-08-20T04:46:53;19.17;;;6.70;;
32427;SDS011;18882;50.952;4.366;2022-08-20T04:49:19;24.85;;;6.35;;
32427;SDS011;18882;50.952;4.366;2022-08-20T04:51:49;15.98;;;6.45;;
32427;SDS011;18882;50.952;4.366;2022-08-20T04:54:14;23.38;;;6.47;;
32427;SDS011;18882;50.952;4.366;2022-08-20T04:56:40;18.05;;;6.05;;
32427;SDS011;18882;50.952;4.366;2022-08-20T04:59:06;23.33;;;7.85;;
32427;SDS011;18882;50.952;4.366;2022-08-20T05:01:32;18.42;;;7.57;;
32427;SDS011;18882;50.952;4.366;2022-08-20T05:03:58;16.67;;;6.82;;
32427;SDS011;18882;50.952;4.366;2022-08-20T05:06:25;20.05;;;7.60;;
32427;SDS011;18882;50.952;4.366;2022-08-20T05:08:54;19.77;;;7.13;;
32427;SDS011;18882;50.952;4.366;2022-08-20T05:11:22;28.58;;;7.30;;
32427;SDS011;18882;50.952;4.366;2022-08-20T05:13:48;27.13;;;7.82;;
32427;SDS011;18882;50.952;4.366;2022-08-20T05:16:16;16.63;;;7.40;;
32427;SDS011;18882;50.952;4.366;2022-08-20T05:18:42;25.50;;;6.82;;
32427;SDS011;18882;50.952;4.366;2022-08-20T05:21:09;19.63;;;6.72;;
32427;SDS011;18882;50.952;4.366;2022-08-20T05:23:35;25.15;;;7.78;;
32427;SDS011;18882;50.952;4.366;2022-08-20T05:26:07;17.75;;;7.30;;
32427;SDS011;18882;50.952;4.366;2022-08-20T05:28:35;20.63;;;7.25;;
32427;SDS011;18882;50.952;4.366;2022-08-20T05:31:07;15.25;;;6.75;;
32427;SDS011;18882;50.952;4.366;2022-08-20T05:33:33;22.00;;;7.40;;
32427;SDS011;18882;50.952;4.366;2022-08-20T05:36:00;20.67;;;7.45;;
32427;SDS011;18882;50.952;4.366;2022-08-20T05:38:28;25.80;;;7.75;;
32427;SDS011;18882;50.952;4.366;2022-08-20T05:40:54;16.92;;;6.85;;
32427;SDS011;18882;50.952;4.366;2022-08-20T05:43:20;20.83;;;7.30;;
32427;SDS011;18882;50.952;4.366;2022-08-20T05:45:46;16.48;;;6.80;;
32427;SDS011;18882;50.952;4.366;2022-08-20T05:48:17;20.38;;;7.60;;
32427;SDS011;18882;50.952;4.366;2022-08-20T05:50:48;23.95;;;6.88;;
32427;SDS011;18882;50.952;4.366;2022-08-20T05:53:16;16.88;;;7.10;;
32427;SDS011;18882;50.952;4.366;2022-08-20T05:55:42;20.92;;;7.53;;
32427;SDS011;18882;50.952;4.366;2022-08-20T05:58:13;23.95;;;7.00;;
32427;SDS011;18882;50.952;4.366;2022-08-20T06:00:42;18.95;;;7.50;;
32427;SDS011;18882;50.952;4.366;2022-08-20T06:03:08;21.38;;;7.18;;
32427;SDS011;18882;50.952;4.366;2022-08-20T06:05:52;26.93;;;7.27;;
32427;SDS011;18882;50.952;4.366;2022-08-20T06:08:18;15.65;;;6.97;;
32427;SDS011;18882;50.952;4.366;2022-08-20T06:10:44;35.30;;;7.50;;
32427;SDS011;18882;50.952;4.366;2022-08-20T06:13:10;14.63;;;6.18;;
32427;SDS011;18882;50.952;4.366;2022-08-20T06:15:36;13.20;;;6.05;;
32427;SDS011;18882;50.952;4.366;2022-08-20T06:18:04;17.73;;;6.22;;
32427;SDS011;18882;50.952;4.366;2022-08-20T06:20:32;19.08;;;5.93;;
32427;SDS011;18882;50.952;4.366;2022-08-20T06:22:58;19.45;;;6.95;;
32427;SDS011;18882;50.952;4.366;2022-08-20T06:25:24;18.15;;;7.20;;
32427;SDS011;18882;50.952;4.366;2022-08-20T06:27:50;21.30;;;7.40;;
32427;SDS011;18882;50.952;4.366;2022-08-20T06:30:15;17.02;;;6.25;;
32427;SDS011;18882;50.952;4.366;2022-08-20T06:32:42;18.35;;;6.60;;
32427;SDS011;18882;50.952;4.366;2022-08-20T06:35:08;24.30;;;7.05;;
32427;SDS011;18882;50.952;4.366;2022-08-20T06:37:36;25.13;;;6.65;;
32427;SDS011;18882;50.952;4.366;2022-08-20T06:40:08;19.38;;;6.70;;
32427;SDS011;18882;50.952;4.366;2022-08-20T06:42:38;18.20;;;6.63;;
32427;SDS011;18882;50.952;4.366;2022-08-20T06:45:07;18.75;;;6.10;;
32427;SDS011;18882;50.952;4.366;2022-08-20T06:47:35;14.30;;;6.60;;
32427;SDS011;18882;50.952;4.366;2022-08-20T06:50:13;15.48;;;7.15;;
32427;SDS011;18882;50.952;4.366;2022-08-20T06:52:44;17.77;;;7.25;;
32427;SDS011;18882;50.952;4.366;2022-08-20T06:55:11;23.40;;;7.75;;
32427;SDS011;18882;50.952;4.366;2022-08-20T06:57:38;17.73;;;7.03;;
32427;SDS011;18882;50.952;4.366;2022-08-20T07:00:05;21.23;;;7.38;;
32427;SDS011;18882;50.952;4.366;2022-08-20T07:02:32;16.55;;;6.90;;
32427;SDS011;18882;50.952;4.366;2022-08-20T07:04:59;17.10;;;7.07;;
32427;SDS011;18882;50.952;4.366;2022-08-20T07:07:25;21.30;;;7.10;;
32427;SDS011;18882;50.952;4.366;2022-08-20T07:09:57;17.02;;;7.35;;
32427;SDS011;18882;50.952;4.366;2022-08-20T07:12:28;20.90;;;7.38;;
32427;SDS011;18882;50.952;4.366;2022-08-20T07:14:54;19.75;;;6.75;;
32427;SDS011;18882;50.952;4.366;2022-08-20T07:17:19;12.68;;;6.65;;
32427;SDS011;18882;50.952;4.366;2022-08-20T07:19:45;16.13;;;7.85;;
32427;SDS011;18882;50.952;4.366;2022-08-20T07:22:11;21.95;;;7.70;;
32427;SDS011;18882;50.952;4.366;2022-08-20T07:24:37;14.23;;;7.65;;
32427;SDS011;18882;50.952;4.366;2022-08-20T07:27:03;24.55;;;8.15;;
32427;SDS011;18882;50.952;4.366;2022-08-20T07:29:29;16.65;;;7.18;;
32427;SDS011;18882;50.952;4.366;2022-08-20T07:32:14;22.38;;;8.35;;
32427;SDS011;18882;50.952;4.366;2022-08-20T07:34:58;25.35;;;8.18;;
32427;SDS011;18882;50.952;4.366;2022-08-20T07:37:24;22.13;;;7.97;;
32427;SDS011;18882;50.952;4.366;2022-08-20T07:39:50;20.10;;;8.15;;
32427;SDS011;18882;50.952;4.366;2022-08-20T07:42:17;18.30;;;7.53;;
32427;SDS011;18882;50.952;4.366;2022-08-20T07:44:43;18.65;;;7.80;;
32427;SDS011;18882;50.952;4.366;2022-08-20T07:47:08;16.40;;;8.50;;
32427;SDS011;18882;50.952;4.366;2022-08-20T07:49:37;20.88;;;7.75;;
32427;SDS011;18882;50.952;4.366;2022-08-20T07:52:04;20.42;;;7.90;;
32427;SDS011;18882;50.952;4.366;2022-08-20T07:54:30;15.70;;;7.15;;
32427;SDS011;18882;50.952;4.366;2022-08-20T07:57:00;21.08;;;7.65;;
32427;SDS011;18882;50.952;4.366;2022-08-20T07:59:27;18.27;;;7.78;;
32427;SDS011;18882;50.952;4.366;2022-08-20T08:01:53;14.13;;;7.53;;
32427;SDS011;18882;50.952;4.366;2022-08-20T08:04:19;16.13;;;7.68;;
32427;SDS011;18882;50.952;4.366;2022-08-20T08:06:45;17.58;;;7.72;;
32427;SDS011;18882;50.952;4.366;2022-08-20T08:09:12;15.45;;;7.90;;
32427;SDS011;18882;50.952;4.366;2022-08-20T08:11:40;18.90;;;7.55;;
32427;SDS011;18882;50.952;4.366;2022-08-20T08:14:09;16.42;;;6.63;;
32427;SDS011;18882;50.952;4.366;2022-08-20T08:16:37;14.63;;;6.20;;
32427;SDS011;18882;50.952;4.366;2022-08-20T08:19:04;12.98;;;6.32;;
32427;SDS011;18882;50.952;4.366;2022-08-20T08:21:32;14.35;;;6.20;;
32427;SDS011;18882;50.952;4.366;2022-08-20T08:23:58;15.93;;;6.13;;
32427;SDS011;18882;50.952;4.366;2022-08-20T08:26:24;16.58;;;5.93;;
32427;SDS011;18882;50.952;4.366;2022-08-20T08:28:52;8.75;;;4.90;;
32427;SDS011;18882;50.952;4.366;2022-08-20T08:31:18;10.93;;;5.00;;
32427;SDS011;18882;50.952;4.366;2022-08-20T08:33:44;12.60;;;5.20;;
32427;SDS011;18882;50.952;4.366;2022-08-20T08:36:10;12.32;;;6.13;;
32427;SDS011;18882;50.952;4.366;2022-08-20T08:38:39;12.48;;;5.03;;
32427;SDS011;18882;50.952;4.366;2022-08-20T08:41:18;19.23;;;6.32;;
32427;SDS011;18882;50.952;4.366;2022-08-20T08:43:53;12.68;;;4.90;;
32427;SDS011;18882;50.952;4.366;2022-08-20T08:46:31;13.45;;;5.82;;
32427;SDS011;18882;50.952;4.366;2022-08-20T08:49:02;12.95;;;4.45;;
32427;SDS011;18882;50.952;4.366;2022-08-20T08:51:33;14.95;;;5.03;;
32427;SDS011;18882;50.952;4.366;2022-08-20T08:54:03;11.07;;;5.10;;
32427;SDS011;18882;50.952;4.366;2022-08-20T08:56:30;10.57;;;4.43;;
32427;SDS011;18882;50.952;4.366;2022-08-20T08:59:06;9.40;;;4.65;;
32427;SDS011;18882;50.952;4.366;2022-08-20T09:01:34;10.13;;;3.47;;
32427;SDS011;18882;50.952;4.366;2022-08-20T09:04:19;11.93;;;4.10;;
32427;SDS011;18882;50.952;4.366;2022-08-20T09:06:47;10.50;;;3.53;;
32427;SDS011;18882;50.952;4.366;2022-08-20T09:09:17;7.38;;;3.47;;
32427;SDS011;18882;50.952;4.366;2022-08-20T09:12:22;9.85;;;2.33;;
32427;SDS011;18882;50.952;4.366;2022-08-20T09:14:51;7.00;;;2.78;;
32427;SDS011;18882;50.952;4.366;2022-08-20T09:17:20;8.18;;;2.60;;
32427;SDS011;18882;50.952;4.366;2022-08-20T09:19:46;6.25;;;1.67;;
32427;SDS011;18882;50.952;4.366;2022-08-20T09:22:15;5.43;;;1.92;;
32427;SDS011;18882;50.952;4.366;2022-08-20T09:24:43;7.75;;;2.60;;
32427;SDS011;18882;50.952;4.366;2022-08-20T09:27:10;5.05;;;1.88;;
32427;SDS011;18882;50.952;4.366;2022-08-20T09:29:36;6.97;;;2.20;;
32427;SDS011;18882;50.952;4.366;2022-08-20T09:32:07;5.57;;;1.50;;
32427;SDS011;18882;50.952;4.366;2022-08-20T09:34:41;6.25;;;1.77;;
32427;SDS011;18882;50.952;4.366;2022-08-20T09:37:09;6.22;;;1.50;;
32427;SDS011;18882;50.952;4.366;2022-08-20T09:39:35;4.40;;;1.50;;
32427;SDS011;18882;50.952;4.366;2022-08-20T09:42:12;7.95;;;1.80;;
32427;SDS011;18882;50.952;4.366;2022-08-20T09:44:40;8.30;;;1.42;;
32427;SDS011;18882;50.952;4.366;2022-08-20T09:47:06;6.93;;;2.58;;
32427;SDS011;18882;50.952;4.366;2022-08-20T09:49:34;7.28;;;1.55;;
32427;SDS011;18882;50.952;4.366;2022-08-20T09:52:01;6.93;;;2.00;;
32427;SDS011;18882;50.952;4.366;2022-08-20T09:54:29;8.38;;;1.63;;
32427;SDS011;18882;50.952;4.366;2022-08-20T09:56:57;6.35;;;1.35;;
32427;SDS011;18882;50.952;4.366;2022-08-20T09:59:27;8.38;;;1.55;;
32427;SDS011;18882;50.952;4.366;2022-08-20T10:01:54;3.97;;;1.35;;
32427;SDS011;18882;50.952;4.366;2022-08-20T10:04:19;5.90;;;1.65;;
32427;SDS011;18882;50.952;4.366;2022-08-20T10:06:45;11.85;;;1.88;;
32427;SDS011;18882;50.952;4.366;2022-08-20T10:09:10;5.72;;;1.58;;
32427;SDS011;18882;50.952;4.366;2022-08-20T10:11:36;4.97;;;1.58;;
32427;SDS011;18882;50.952;4.366;2022-08-20T10:14:02;5.45;;;1.60;;
32427;SDS011;18882;50.952;4.366;2022-08-20T10:16:28;9.65;;;1.80;;
32427;SDS011;18882;50.952;4.366;2022-08-20T10:18:55;8.77;;;2.30;;
32427;SDS011;18882;50.952;4.366;2022-08-20T10:21:21;5.50;;;2.10;;
32427;SDS011;18882;50.952;4.366;2022-08-20T10:23:46;3.53;;;1.65;;
32427;SDS011;18882;50.952;4.366;2022-08-20T10:26:14;8.80;;;1.75;;
32427;SDS011;18882;50.952;4.366;2022-08-20T10:28:41;5.60;;;1.58;;
32427;SDS011;18882;50.952;4.366;2022-08-20T10:31:08;8.50;;;1.55;;
32427;SDS011;18882;50.952;4.366;2022-08-20T10:33:35;6.95;;;1.77;;
32427;SDS011;18882;50.952;4.366;2022-08-20T10:36:05;9.63;;;1.58;;
32427;SDS011;18882;50.952;4.366;2022-08-20T10:38:33;6.97;;;2.05;;
32427;SDS011;18882;50.952;4.366;2022-08-20T10:40:58;6.07;;;1.95;;
32427;SDS011;18882;50.952;4.366;2022-08-20T10:43:24;6.28;;;2.03;;
32427;SDS011;18882;50.952;4.366;2022-08-20T10:45:50;7.22;;;2.17;;
32427;SDS011;18882;50.952;4.366;2022-08-20T10:48:15;10.32;;;1.73;;
32427;SDS011;18882;50.952;4.366;2022-08-20T10:50:41;9.85;;;2.22;;
32427;SDS011;18882;50.952;4.366;2022-08-20T10:53:07;6.75;;;1.58;;
32427;SDS011;18882;50.952;4.366;2022-08-20T10:55:33;7.30;;;2.08;;
32427;SDS011;18882;50.952;4.366;2022-08-20T10:57:58;8.35;;;1.60;;
32427;SDS011;18882;50.952;4.366;2022-08-20T11:00:24;5.22;;;1.40;;
32427;SDS011;18882;50.952;4.366;2022-08-20T11:02:50;6.78;;;1.40;;
32427;SDS011;18882;50.952;4.366;2022-08-20T11:05:16;8.57;;;1.92;;
32427;SDS011;18882;50.952;4.366;2022-08-20T11:07:42;6.75;;;1.77;;
32427;SDS011;18882;50.952;4.366;2022-08-20T11:10:09;4.00;;;1.33;;
32427;SDS011;18882;50.952;4.366;2022-08-20T11:12:35;3.03;;;1.58;;
32427;SDS011;18882;50.952;4.366;2022-08-20T11:15:02;9.35;;;1.88;;
32427;SDS011;18882;50.952;4.366;2022-08-20T11:17:29;5.47;;;1.65;;
32427;SDS011;18882;50.952;4.366;2022-08-20T11:19:57;6.63;;;1.75;;
32427;SDS011;18882;50.952;4.366;2022-08-20T11:22:24;5.85;;;1.73;;
32427;SDS011;18882;50.952;4.366;2022-08-20T11:24:50;8.95;;;1.92;;
32427;SDS011;18882;50.952;4.366;2022-08-20T11:27:18;6.70;;;1.33;;
32427;SDS011;18882;50.952;4.366;2022-08-20T11:29:49;5.53;;;1.38;;
32427;SDS011;18882;50.952;4.366;2022-08-20T11:32:16;5.93;;;1.55;;
32427;SDS011;18882;50.952;4.366;2022-08-20T11:34:42;7.57;;;1.40;;
32427;SDS011;18882;50.952;4.366;2022-08-20T11:37:08;6.00;;;1.50;;
32427;SDS011;18882;50.952;4.366;2022-08-20T11:39:36;6.13;;;1.33;;
32427;SDS011;18882;50.952;4.366;2022-08-20T11:42:01;5.25;;;1.50;;
32427;SDS011;18882;50.952;4.366;2022-08-20T11:44:27;5.13;;;1.80;;
32427;SDS011;18882;50.952;4.366;2022-08-20T11:46:53;5.85;;;1.73;;
32427;SDS011;18882;50.952;4.366;2022-08-20T11:49:22;4.60;;;1.60;;
32427;SDS011;18882;50.952;4.366;2022-08-20T11:51:47;6.15;;;1.63;;
32427;SDS011;18882;50.952;4.366;2022-08-20T11:54:13;11.15;;;1.90;;
32427;SDS011;18882;50.952;4.366;2022-08-20T11:56:39;11.90;;;2.15;;
32427;SDS011;18882;50.952;4.366;2022-08-20T11:59:05;3.65;;;1.42;;
32427;SDS011;18882;50.952;4.366;2022-08-20T12:01:30;8.20;;;1.77;;
32427;SDS011;18882;50.952;4.366;2022-08-20T12:03:56;10.00;;;1.75;;
32427;SDS011;18882;50.952;4.366;2022-08-20T12:06:22;3.53;;;1.25;;
32427;SDS011;18882;50.952;4.366;2022-08-20T12:08:47;4.95;;;1.20;;
32427;SDS011;18882;50.952;4.366;2022-08-20T12:11:13;5.30;;;1.27;;
32427;SDS011;18882;50.952;4.366;2022-08-20T12:13:39;5.50;;;1.65;;
32427;SDS011;18882;50.952;4.366;2022-08-20T12:16:04;3.20;;;1.23;;
32427;SDS011;18882;50.952;4.366;2022-08-20T12:18:30;7.03;;;1.20;;
32427;SDS011;18882;50.952;4.366;2022-08-20T12:20:56;4.70;;;0.90;;
32427;SDS011;18882;50.952;4.366;2022-08-20T12:23:22;3.45;;;1.00;;
32427;SDS011;18882;50.952;4.366;2022-08-20T12:25:48;5.05;;;1.10;;
32427;SDS011;18882;50.952;4.366;2022-08-20T12:28:14;2.47;;;1.23;;
32427;SDS011;18882;50.952;4.366;2022-08-20T12:30:40;4.57;;;1.27;;
32427;SDS011;18882;50.952;4.366;2022-08-20T12:33:06;3.80;;;0.98;;
32427;SDS011;18882;50.952;4.366;2022-08-20T12:35:32;5.47;;;0.90;;
32427;SDS011;18882;50.952;4.366;2022-08-20T12:38:00;3.20;;;1.10;;
32427;SDS011;18882;50.952;4.366;2022-08-20T12:40:28;4.47;;;0.80;;
32427;SDS011;18882;50.952;4.366;2022-08-20T12:42:54;2.95;;;0.73;;
32427;SDS011;18882;50.952;4.366;2022-08-20T12:45:20;9.48;;;1.27;;
32427;SDS011;18882;50.952;4.366;2022-08-20T12:47:46;2.03;;;1.02;;
32427;SDS011;18882;50.952;4.366;2022-08-20T12:50:14;3.40;;;0.90;;
32427;SDS011;18882;50.952;4.366;2022-08-20T12:52:42;8.02;;;1.20;;
32427;SDS011;18882;50.952;4.366;2022-08-20T12:55:09;3.75;;;0.80;;
32427;SDS011;18882;50.952;4.366;2022-08-20T12:57:38;2.05;;;1.00;;
32427;SDS011;18882;50.952;4.366;2022-08-20T13:00:10;3.03;;;1.15;;
32427;SDS011;18882;50.952;4.366;2022-08-20T13:02:38;3.53;;;1.15;;
32427;SDS011;18882;50.952;4.366;2022-08-20T13:05:05;4.15;;;1.20;;
32427;SDS011;18882;50.952;4.366;2022-08-20T13:07:32;3.33;;;0.98;;
32427;SDS011;18882;50.952;4.366;2022-08-20T13:09:58;2.22;;;0.73;;
32427;SDS011;18882;50.952;4.366;2022-08-20T13:12:24;4.05;;;1.05;;
32427;SDS011;18882;50.952;4.366;2022-08-20T13:14:51;4.00;;;0.95;;
32427;SDS011;18882;50.952;4.366;2022-08-20T13:17:17;2.28;;;1.00;;
32427;SDS011;18882;50.952;4.366;2022-08-20T13:19:43;3.25;;;1.50;;
32427;SDS011;18882;50.952;4.366;2022-08-20T13:22:10;4.28;;;1.42;;
32427;SDS011;18882;50.952;4.366;2022-08-20T13:24:36;3.35;;;1.60;;
32427;SDS011;18882;50.952;4.366;2022-08-20T13:27:06;5.63;;;1.20;;
32427;SDS011;18882;50.952;4.366;2022-08-20T13:29:34;3.28;;;0.95;;
32427;SDS011;18882;50.952;4.366;2022-08-20T13:32:00;1.90;;;0.90;;
32427;SDS011;18882;50.952;4.366;2022-08-20T13:34:26;3.67;;;1.42;;
32427;SDS011;18882;50.952;4.366;2022-08-20T13:36:52;4.75;;;1.45;;
32427;SDS011;18882;50.952;4.366;2022-08-20T13:39:19;6.18;;;1.30;;
32427;SDS011;18882;50.952;4.366;2022-08-20T13:41:47;3.90;;;1.92;;
32427;SDS011;18882;50.952;4.366;2022-08-20T13:44:12;4.90;;;1.98;;
32427;SDS011;18882;50.952;4.366;2022-08-20T13:46:38;3.47;;;1.33;;
32427;SDS011;18882;50.952;4.366;2022-08-20T13:49:03;4.35;;;1.10;;
32427;SDS011;18882;50.952;4.366;2022-08-20T13:51:29;3.13;;;1.17;;
32427;SDS011;18882;50.952;4.366;2022-08-20T13:53:55;1.67;;;0.95;;
32427;SDS011;18882;50.952;4.366;2022-08-20T13:56:21;5.00;;;1.40;;
32427;SDS011;18882;50.952;4.366;2022-08-20T13:58:47;3.60;;;1.23;;
32427;SDS011;18882;50.952;4.366;2022-08-20T14:01:13;5.03;;;1.45;;
32427;SDS011;18882;50.952;4.366;2022-08-20T14:03:38;6.18;;;1.45;;
32427;SDS011;18882;50.952;4.366;2022-08-20T14:06:05;5.30;;;1.50;;
32427;SDS011;18882;50.952;4.366;2022-08-20T14:08:33;3.10;;;1.35;;
32427;SDS011;18882;50.952;4.366;2022-08-20T14:11:00;3.78;;;1.23;;
32427;SDS011;18882;50.952;4.366;2022-08-20T14:13:25;4.68;;;1.30;;
32427;SDS011;18882;50.952;4.366;2022-08-20T14:15:51;4.30;;;1.55;;
32427;SDS011;18882;50.952;4.366;2022-08-20T14:18:18;3.67;;;0.88;;
32427;SDS011;18882;50.952;4.366;2022-08-20T14:20:44;5.00;;;1.35;;
32427;SDS011;18882;50.952;4.366;2022-08-20T14:23:10;6.40;;;1.40;;
32427;SDS011;18882;50.952;4.366;2022-08-20T14:25:36;1.58;;;1.00;;
32427;SDS011;18882;50.952;4.366;2022-08-20T14:28:09;7.15;;;1.33;;
32427;SDS011;18882;50.952;4.366;2022-08-20T14:30:36;2.60;;;0.95;;
32427;SDS011;18882;50.952;4.366;2022-08-20T14:33:02;5.45;;;1.23;;
32427;SDS011;18882;50.952;4.366;2022-08-20T14:35:28;3.15;;;1.00;;
32427;SDS011;18882;50.952;4.366;2022-08-20T14:37:53;4.07;;;1.55;;
32427;SDS011;18882;50.952;4.366;2022-08-20T14:40:21;4.97;;;1.30;;
32427;SDS011;18882;50.952;4.366;2022-08-20T14:42:49;3.88;;;1.08;;
32427;SDS011;18882;50.952;4.366;2022-08-20T14:45:15;6.30;;;1.10;;
32427;SDS011;18882;50.952;4.366;2022-08-20T14:47:46;5.35;;;1.02;;
32427;SDS011;18882;50.952;4.366;2022-08-20T14:50:18;6.70;;;1.63;;
32427;SDS011;18882;50.952;4.366;2022-08-20T14:52:46;4.68;;;1.42;;
32427;SDS011;18882;50.952;4.366;2022-08-20T14:55:13;3.28;;;1.15;;
32427;SDS011;18882;50.952;4.366;2022-08-20T14:57:41;3.17;;;0.95;;